Scroll down
FLIGHT INFORMATION
Singapore Airlines Cargo

SQC7348

At Arrival Gate

KLAX
 KSFO
DATE: 2020-11-07
GATE: 19
GATE DEPARTURE: 16:26
TAKEOFF: 16:34
DATE: 2020-11-07
GATE:  -
LANDING: 17:26
GATE ARRIVAL: 17:31
FLIGHT DATA
Crew: 
Speed: 
846 kph
Altitude: 
28,009 ft
Stage Length: 
543.2 km
Block Time: 
1 hrs
Flight Time: 
0.9 hrs
Fuel Used: 
10,288 kg
Cleared Route: 
TRACK DATA
50,000 ft 1,000 kts
AIRCRAFT INFO AND CUMULATIVE STATS
Aircraft Type: 
B744F
Registration: 
SELCAL: 
MSN/LN: 
26553 / 1069
Total Flights: 
7
Total Block Time: 
47.6 hrs
Total Flight Time: 
45.9 hrs
Total Fuel Used: 
514,313 kg
DATALINK LOG | Newest first | Current as of: 2022-09-27 08:24:09
LABEL SEQUENCE CONTENT Dn/Up
QD361017:31 31.3▼ Dn
QC322917:26▼ Dn
2U1311KSFO 070156Z 26011KT 10SM FEW008 FEW025 13/06 A2970 RMK AO2 SLP058 T01280061▲ Up
2S1311KSFO▼ Dn
QB393316:34▼ Dn
QA311416:26 54.1▼ Dn
A32719CLEARED TO KSFO VIA SUMMR2 STOKD SERFR SERFR4. SQUAWK 0760.▲ Up
2U2717KLAX 070053Z 27014KT 8SM BKN023 OVC030 18/13 A2965 RMK AO2 SLP038 T01780128 $▲ Up
2U2717KSFO 070056Z 23012KT 10SM FEW017 SCT025 BKN035 BKN150 13/07 A2970 RMK AO2 SLP059 T01330067▲ Up
2S2717KLAX KSFO▼ Dn
Q02609[LINK ACK]▲ Up
Q02609[LINK TEST]▼ Dn


AIRCRAFT HISTORY
FLIGHT DATE FLIGHT NO. ORIGIN DESTINATION CLEARED ROUTE BLOCK TIME FLIGHT TIME FUEL USED PILOT
2021-11-10SQC1110EHAM KORD EHAM IDRID ABNED IBNOS XAMAN LOGAN JACKO TRIPO SABER LIVSU MANGO BRASO WESUL EVNAS LAM UGBET CPT KENET GAVGO DEZZU DIKAS LUFTU STU BANBA LIMRI 5220N 5330N 5340N 5350N RIKAL YRI DICEN LIVBA VIDGO KISUK LETAK DESKI ILEMU MENKO GOPUP TAGUM CFWBG HOCKE FNT KORD9.6 hrs9.3 hrs230,409 lbKevin Hall
2020-11-07SQC7674KSFO EHAM 9.7 hrs9.4 hrs223,773 lbMichael Roth
2020-11-07SQC7348KLAX KSFO 1 hrs0.9 hrs22,681 lbMichael Roth
2020-11-06SQC7654YSSY KLAX 13.3 hrs13.1 hrs302,743 lbMichael Roth
2020-10-31SQC7296WSSS YSSY WSSS TOPOM DOKTA DOGRA DOSNO VENPA VENIX SURGA RUSMA SAMSU MASRI RAFIS TAVIP SBR TAWON ATMAP CIN TATUK TIMMI AS KALUG POLEV APOMA MACLA PKS WATLE URDEN IGALA YSSY7 hrs6.7 hrs182,244 lbMichael Roth
2020-10-31SQC7867VHHH WSSS VHHH PORPA RAMEN BREAM TITAN PECAN ALLEY EPDOS ENBOK EPKAL EGEMU EXOTO VEPAM KARAN SOSPA PTH RUTIT ELSAS CN DUDIS MABLI MUMSO MABAL WSSS3.5 hrs3.3 hrs81,573 lbMichael Roth
2020-10-25SQC7870WSSS VHHH WSSS TOPOM ATRUM AKOMA VMR RAXIM OTLON VISAT DUBSA DAMOG DOLOX DUDIS DAGAG SUDUN DAMVO DOXAR NITOM DAMEL 34BC DONDA DOSUT DULOP DUMOL ARROW ISBAN CANTO VHHH3.4 hrs3.2 hrs90,445 lbMichael Roth